Nearby METAR Reports

 

EGNM - Leeds And Bradford, United Kingdom
Distance from station: N 11mi, 18km
Updated: 14/04/2021 14:50
NOT Current
Few Clouds
Few Clouds
 Wind from NE
Wind: NE 8 mph , 13 km/h
Temperature: 10°C
Wind Chill: 8°C
Dew Point: -1°C
Humidity: 47%
Barometer: 1033 hPa
Clouds: Few Clouds
Visibility: 6 miles , 10 km
Cloud details: Few Clouds 1463 m
2021/04/14 14:50 EGNM 141450Z 05007KT 020V090 9999 FEW048 10/M01 Q1033
EGXU - Linton-On-Ouse, United Kingdom
Distance from station: NNE 28mi, 45km
Updated: 15/04/2021 09:50
Clear
Clear
 Wind from N
Wind: N 3 mph , 6 km/h
Temperature: 8°C
Dew Point: 0°C
Humidity: 57%
Barometer: 1035 hPa
Clouds: Clear
Visibility: 6 miles , 10 km
2021/04/15 09:50 EGXU 150950Z AUTO 36003KT 9999 NCD 08/M00 Q1035
 
EGCN - Doncaster Sheffield, United Kingdom
Distance from station: ESE 30mi, 45km
Updated: 15/04/2021 10:20
Few Clouds
Few Clouds
 Wind from N
Wind: N 6 mph , 9 km/h
Temperature: 9°C
Wind Chill: 7°C
Dew Point: 0°C
Humidity: 54%
Barometer: 1036 hPa
Clouds: Few Clouds
Visibility: 6 miles , 10 km
Cloud details: Few Clouds 945 m
2021/04/15 10:20 EGCN 151020Z 35005KT 310V020 9999 FEW031 09/M00 Q1036
EGXZ - Topcliffe RAF, United Kingdom
Distance from station: NNE 36mi, 57km
Updated: 15/04/2021 09:50
Clear
Clear
 Wind from N
Wind: N 3 mph , 6 km/h
Temperature: 8°C
Dew Point: 0°C
Humidity: 57%
Barometer: 1036 hPa
Clouds: Clear
Visibility: 6 miles , 10 km
2021/04/15 09:50 EGXZ 150950Z AUTO 01003KT 9999 NCD 08/00 Q1036
 
EGCC - Manchester Intl, United Kingdom
Distance from station: SW 36mi, 58km
Updated: 15/04/2021 10:20
Clear
Clear
 Wind from SSE
Wind: SSE 5 mph , 7 km/h
Temperature: 9°C
Wind Chill: 8°C
Dew Point: -1°C
Humidity: 50%
Barometer: 1035 hPa
Clouds: Clear
Visibility: 6 miles , 10 km
2021/04/15 10:20 EGCC 151020Z AUTO 16004KT 080V240 9999 NCD 09/M01 Q1035
EGXE - Leeming RAF, United Kingdom
Distance from station: N 40mi, 65km
Updated: 15/04/2021 10:20
Few Clouds
Few Clouds
 Wind from S
Wind: S 2 mph , 4 km/h
Temperature: 8°C
Dew Point: -1°C
Humidity: 53%
Barometer: 1035 hPa
Clouds: Few Clouds
Visibility: 6 miles , 10 km
Cloud details: Few Clouds 1219 m
2021/04/15 10:20 EGXE 151020Z 17002KT 9999 FEW040 08/M01 Q1035 NOSIG RMK BLU BLU